createdAt,value
2018-06-05T00:01:04.717Z,36.53
2018-06-05T00:03:43.890Z,36.50
2018-06-05T00:06:12.495Z,35.73
2018-06-05T00:08:41.083Z,38.37
2018-06-05T00:11:09.753Z,36.87
2018-06-05T00:13:38.329Z,36.07
2018-06-05T00:16:07.069Z,39.40
2018-06-05T00:18:35.734Z,35.17
2018-06-05T00:21:04.390Z,36.93
2018-06-05T00:23:33.013Z,36.03
2018-06-05T00:26:01.626Z,35.57
2018-06-05T00:28:30.278Z,37.33
2018-06-05T00:30:58.889Z,36.40
2018-06-05T00:33:31.453Z,42.90
2018-06-05T00:36:00.121Z,36.07
2018-06-05T00:38:28.796Z,36.70
2018-06-05T00:40:57.380Z,39.97
2018-06-05T00:43:26.056Z,43.10
2018-06-05T00:45:55.284Z,39.80
2018-06-05T00:48:23.966Z,37.47
2018-06-05T00:53:15.230Z,33.80
2018-06-05T00:55:43.822Z,36.27
2018-06-05T00:58:12.449Z,35.03
2018-06-05T01:00:41.017Z,37.07
2018-06-05T01:03:09.625Z,34.27
2018-06-05T01:05:42.012Z,33.37
2018-06-05T01:08:10.693Z,33.10
2018-06-05T01:10:39.353Z,31.07
2018-06-05T01:13:07.943Z,33.33
2018-06-05T01:15:36.520Z,32.60
2018-06-05T01:18:05.215Z,31.73
2018-06-05T01:20:33.915Z,33.37
2018-06-05T01:23:02.636Z,31.60
2018-06-05T01:25:31.282Z,30.93
2018-06-05T01:27:59.957Z,30.63
2018-06-05T01:30:28.563Z,31.10
2018-06-05T01:32:57.251Z,29.97
2018-06-05T01:35:25.934Z,29.67
2018-06-05T01:37:54.635Z,32.37
2018-06-05T01:40:23.230Z,29.83
2018-06-05T01:42:51.892Z,28.80
2018-06-05T01:45:20.586Z,29.27
2018-06-05T01:47:49.232Z,28.20
2018-06-05T01:50:17.933Z,30.90
2018-06-05T01:52:50.563Z,29.60
2018-06-05T01:55:19.350Z,28.73
2018-06-05T01:57:48.772Z,29.83
2018-06-05T02:00:17.545Z,29.93
2018-06-05T02:02:46.209Z,28.67
2018-06-05T02:05:14.873Z,28.30
2018-06-05T02:07:43.545Z,28.83
2018-06-05T02:10:12.113Z,29.77
2018-06-05T02:12:40.702Z,28.10
2018-06-05T02:15:09.620Z,28.40
2018-06-05T02:17:38.196Z,28.03
2018-06-05T02:20:14.682Z,27.87
2018-06-05T02:22:43.419Z,28.57
2018-06-05T02:25:12.031Z,27.83
2018-06-05T02:27:40.630Z,28.80
2018-06-05T02:30:09.325Z,28.57
2018-06-05T02:32:37.982Z,28.43
2018-06-05T02:35:06.560Z,27.37
2018-06-05T02:37:35.384Z,30.33
2018-06-05T02:40:04.112Z,29.60
2018-06-05T02:42:32.749Z,28.10
2018-06-05T02:45:01.453Z,28.40
2018-06-05T02:47:30.120Z,25.37
2018-06-05T02:49:58.834Z,30.17
2018-06-05T02:52:27.526Z,31.33
2018-06-05T02:54:56.141Z,28.03
2018-06-05T02:57:24.820Z,28.00
2018-06-05T02:59:53.508Z,28.87
2018-06-05T03:02:22.093Z,29.10
2018-06-05T03:04:57.878Z,29.43
2018-06-05T03:07:26.608Z,29.00
2018-06-05T03:09:55.262Z,27.60
2018-06-05T03:12:23.957Z,28.67
2018-06-05T03:14:52.571Z,29.60
2018-06-05T03:17:21.227Z,29.60
2018-06-05T03:19:49.860Z,28.23
2018-06-05T03:22:18.437Z,28.37
2018-06-05T03:24:47.064Z,28.83
2018-06-05T03:27:15.682Z,28.73
2018-06-05T03:29:44.506Z,32.07
2018-06-05T03:32:13.168Z,26.90
2018-06-05T03:35:00.344Z,30.90
2018-06-05T03:37:29.018Z,29.37
2018-06-05T03:39:57.624Z,31.17
2018-06-05T03:42:26.191Z,32.57
2018-06-05T03:44:54.898Z,28.33
2018-06-05T03:47:23.593Z,33.53
2018-06-05T03:49:52.272Z,27.73
2018-06-05T03:52:20.828Z,31.33
2018-06-05T03:54:49.442Z,36.20
2018-06-05T03:57:18.138Z,31.80
2018-06-05T03:59:47.398Z,31.00
2018-06-05T04:02:16.036Z,30.83
2018-06-05T04:04:44.705Z,31.23
2018-06-05T04:07:13.283Z,35.17
2018-06-05T04:10:19.781Z,33.47
2018-06-05T04:12:48.442Z,31.10
2018-06-05T04:15:17.681Z,32.13
2018-06-05T04:17:46.251Z,30.33
2018-06-05T04:20:14.925Z,31.27
2018-06-05T04:22:44.064Z,34.30
2018-06-05T04:25:12.666Z,34.53
2018-06-05T04:27:41.374Z,30.97
2018-06-05T04:30:10.332Z,32.00
2018-06-05T04:32:38.996Z,30.07
2018-06-05T04:35:08.322Z,33.97
2018-06-05T04:37:36.934Z,32.23
2018-06-05T04:40:06.368Z,33.33
2018-06-05T04:42:34.948Z,33.37
2018-06-05T04:45:03.688Z,33.10
2018-06-05T04:47:32.304Z,33.50
2018-06-05T04:50:00.931Z,39.00
2018-06-05T04:52:29.563Z,36.07
2018-06-05T04:54:58.147Z,38.47
2018-06-05T04:57:26.833Z,42.73
2018-06-05T04:59:55.538Z,41.13
2018-06-05T05:02:24.259Z,43.43
2018-06-05T05:04:53.603Z,46.23
2018-06-05T05:07:22.217Z,48.13
2018-06-05T05:09:50.893Z,43.13
2018-06-05T05:12:19.489Z,45.50
2018-06-05T05:14:48.880Z,38.27
2018-06-05T05:17:17.585Z,46.83
2018-06-05T05:19:46.155Z,47.57
2018-06-05T05:22:15.029Z,47.10
2018-06-05T05:24:43.680Z,47.43
2018-06-05T05:27:12.418Z,45.27
2018-06-05T05:29:40.997Z,47.07
2018-06-05T05:32:09.708Z,43.33
2018-06-05T05:34:38.387Z,42.23
2018-06-05T05:37:07.426Z,43.07
2018-06-05T05:39:36.126Z,44.27
2018-06-05T05:42:04.981Z,46.53
2018-06-05T05:44:33.694Z,44.27
2018-06-05T05:47:03.016Z,44.03
2018-06-05T05:49:31.596Z,44.67
2018-06-05T05:52:00.229Z,43.67
2018-06-05T05:54:28.864Z,46.77
2018-06-05T05:56:57.497Z,44.10
2018-06-05T05:59:26.161Z,44.30
2018-06-05T06:01:54.905Z,45.27
2018-06-05T06:04:23.541Z,41.63
2018-06-05T06:06:52.212Z,43.87
2018-06-05T06:09:20.922Z,45.27
2018-06-05T06:11:49.691Z,44.77
2018-06-05T06:14:18.380Z,39.00
2018-06-05T06:16:46.986Z,40.57
2018-06-05T06:19:15.570Z,39.80
2018-06-05T06:21:44.243Z,39.37
2018-06-05T06:24:13.072Z,40.17
2018-06-05T06:26:41.673Z,40.73
2018-06-05T06:29:10.903Z,39.83
2018-06-05T06:31:39.499Z,37.30
2018-06-05T06:34:08.224Z,40.60
2018-06-05T06:36:37.146Z,39.83
2018-06-05T06:39:09.392Z,38.53
2018-06-05T06:41:38.893Z,41.70
2018-06-05T06:44:08.275Z,37.10
2018-06-05T06:46:36.950Z,39.33
2018-06-05T06:49:09.218Z,42.83
2018-06-05T06:51:37.854Z,38.23
2018-06-05T06:54:06.535Z,40.70
2018-06-05T06:56:35.210Z,38.27
2018-06-05T06:59:04.510Z,39.63
2018-06-05T07:01:33.266Z,41.20
2018-06-05T07:04:01.947Z,38.10
2018-06-05T07:06:37.878Z,39.13
2018-06-05T07:09:08.480Z,40.63
2018-06-05T07:11:37.544Z,40.20
2018-06-05T07:14:06.313Z,39.57
2018-06-05T07:16:34.893Z,42.30
2018-06-05T07:19:03.525Z,42.90
2018-06-05T07:21:32.127Z,40.57
2018-06-05T07:24:08.623Z,41.40
2018-06-05T07:26:37.364Z,39.07
2018-06-05T07:29:06.002Z,42.73
2018-06-05T07:31:34.603Z,36.83
2018-06-05T07:34:03.321Z,45.10
2018-06-05T07:36:31.905Z,42.63
2018-06-05T07:39:04.612Z,39.47
2018-06-05T07:41:33.225Z,42.00
2018-06-05T07:44:02.077Z,41.33
2018-06-05T07:46:49.385Z,40.17
2018-06-05T07:49:18.083Z,40.20
2018-06-05T07:51:46.745Z,37.83
2018-06-05T07:54:15.452Z,39.40
2018-06-05T07:56:44.104Z,38.77
2018-06-05T07:59:12.770Z,38.67
2018-06-05T08:01:41.404Z,42.13
2018-06-05T08:04:10.074Z,47.70
2018-06-05T08:06:39.341Z,42.80
2018-06-05T08:09:09.485Z,44.63
2018-06-05T08:11:38.275Z,46.87
2018-06-05T08:14:06.944Z,46.70
2018-06-05T08:16:35.640Z,48.30
2018-06-05T08:19:04.425Z,42.20
2018-06-05T08:21:33.092Z,47.13
2018-06-05T08:24:01.720Z,43.93
2018-06-05T08:26:45.286Z,46.50
2018-06-05T08:29:13.916Z,47.80
2018-06-05T08:31:42.618Z,46.47
2018-06-05T08:34:11.371Z,41.47
2018-06-05T08:36:40.097Z,49.43
2018-06-05T08:39:09.297Z,44.27
2018-06-05T08:41:37.875Z,46.87
2018-06-05T08:44:06.745Z,46.93
2018-06-05T08:46:35.438Z,46.97
2018-06-05T08:49:04.158Z,45.53
2018-06-05T08:51:32.812Z,42.00
2018-06-05T08:54:01.429Z,42.93
2018-06-05T08:56:30.129Z,51.20
2018-06-05T08:58:58.717Z,43.90
2018-06-05T09:01:27.357Z,42.63
2018-06-05T09:03:56.044Z,43.97
2018-06-05T09:06:24.637Z,43.70
2018-06-05T09:08:53.406Z,40.83
2018-06-05T09:11:21.984Z,40.00
2018-06-05T09:13:50.647Z,39.73
2018-06-05T09:16:19.262Z,34.60
2018-06-05T09:18:47.861Z,39.80
2018-06-05T09:21:16.557Z,39.53
2018-06-05T09:23:45.219Z,34.33
2018-06-05T09:26:13.931Z,31.87
2018-06-05T09:28:42.585Z,30.27
2018-06-05T09:31:11.186Z,30.43
2018-06-05T09:33:39.785Z,28.53
2018-06-05T09:36:08.780Z,27.47
2018-06-05T09:38:37.491Z,27.63
2018-06-05T09:41:06.273Z,25.20
2018-06-05T09:43:34.844Z,26.13
2018-06-05T09:46:03.497Z,28.57
2018-06-05T09:48:32.085Z,26.87
2018-06-05T09:51:00.770Z,25.93
2018-06-05T09:53:29.452Z,25.23
2018-06-05T09:55:58.144Z,23.43
2018-06-05T09:58:26.839Z,24.73
2018-06-05T10:00:55.430Z,26.60
2018-06-05T10:03:24.106Z,26.97
2018-06-05T10:05:52.889Z,27.13
2018-06-05T10:08:21.568Z,26.27
2018-06-05T10:10:50.194Z,28.03
2018-06-05T10:13:18.845Z,29.20
2018-06-05T10:15:47.425Z,29.87
2018-06-05T10:18:16.125Z,26.27
2018-06-05T10:20:44.797Z,27.63
2018-06-05T10:23:13.479Z,25.40
2018-06-05T10:25:42.075Z,29.07
2018-06-05T10:28:10.761Z,30.07
2018-06-05T10:30:39.427Z,31.37
2018-06-05T10:33:08.122Z,32.60
2018-06-05T10:35:36.811Z,27.40
2018-06-05T10:38:06.169Z,28.63
2018-06-05T10:40:34.910Z,27.10
2018-06-05T10:43:03.592Z,30.93
2018-06-05T10:45:32.313Z,27.53
2018-06-05T10:48:00.977Z,26.30
2018-06-05T10:50:29.577Z,25.83
2018-06-05T10:52:58.248Z,27.30
2018-06-05T10:55:26.933Z,30.53
2018-06-05T10:57:55.527Z,39.80
2018-06-05T11:00:24.261Z,30.17
2018-06-05T11:02:52.824Z,32.07
2018-06-05T11:05:21.528Z,34.33
2018-06-05T11:07:50.220Z,31.40
2018-06-05T11:10:18.816Z,31.27
2018-06-05T11:12:47.513Z,27.70
2018-06-05T11:15:16.093Z,26.53
2018-06-05T11:17:44.704Z,28.60
2018-06-05T11:20:13.395Z,30.00
2018-06-05T11:22:42.180Z,28.10
2018-06-05T11:25:10.856Z,28.33
2018-06-05T11:27:39.535Z,29.87
2018-06-05T11:30:08.238Z,27.30
2018-06-05T11:32:37.065Z,26.80
2018-06-05T11:35:05.913Z,26.93
2018-06-05T11:37:34.488Z,33.70
2018-06-05T11:40:03.325Z,29.90
2018-06-05T11:42:32.002Z,32.37
2018-06-05T11:45:00.649Z,31.00
2018-06-05T11:47:29.284Z,32.00
2018-06-05T11:49:57.900Z,35.07
2018-06-05T11:52:26.501Z,32.17
2018-06-05T11:54:55.957Z,31.43
2018-06-05T11:57:24.713Z,33.20
2018-06-05T11:59:53.317Z,31.67
2018-06-05T12:02:22.004Z,31.07
2018-06-05T12:04:50.624Z,36.20
2018-06-05T12:07:19.850Z,31.23
2018-06-05T12:09:48.635Z,32.20
2018-06-05T12:12:17.233Z,31.10
2018-06-05T12:14:49.287Z,29.07
2018-06-05T12:17:17.975Z,33.53
2018-06-05T12:19:46.667Z,29.47
2018-06-05T12:22:15.339Z,33.40
2018-06-05T12:24:43.913Z,31.57
2018-06-05T12:27:12.523Z,28.40
2018-06-05T12:29:41.304Z,28.83
2018-06-05T12:32:10.003Z,29.90
2018-06-05T12:34:38.712Z,30.13
2018-06-05T12:37:07.504Z,30.90
2018-06-05T12:39:36.196Z,31.23
2018-06-05T12:42:04.873Z,31.87
2018-06-05T12:44:33.489Z,26.63
2018-06-05T12:47:02.252Z,33.87
2018-06-05T12:49:30.851Z,32.17
2018-06-05T12:51:59.607Z,30.70
2018-06-05T12:54:28.263Z,30.03
2018-06-05T12:56:56.958Z,29.33
2018-06-05T12:59:25.675Z,28.17
2018-06-05T13:01:54.355Z,27.40
2018-06-05T13:04:22.956Z,29.93
2018-06-05T13:06:51.569Z,27.50
2018-06-05T13:09:20.305Z,30.43
2018-06-05T13:11:49.008Z,27.87
2018-06-05T13:14:17.732Z,27.97
2018-06-05T13:16:46.334Z,30.47
2018-06-05T13:19:15.026Z,28.30
2018-06-05T13:21:43.609Z,25.60
2018-06-05T13:24:12.302Z,27.93
2018-06-05T13:26:41.725Z,29.50
2018-06-05T13:29:10.381Z,28.07
2018-06-05T13:31:39.068Z,29.07
2018-06-05T13:34:07.671Z,29.90
2018-06-05T13:36:36.376Z,32.47
2018-06-05T13:39:08.266Z,27.37
2018-06-05T13:41:36.933Z,26.83
2018-06-05T13:44:05.832Z,28.77
2018-06-05T13:46:35.023Z,28.00
2018-06-05T13:49:03.687Z,28.70
2018-06-05T13:51:32.282Z,27.60
2018-06-05T13:54:01.081Z,29.80
2018-06-05T13:56:29.839Z,27.23
2018-06-05T13:58:58.473Z,26.83
2018-06-05T14:01:27.188Z,27.63
2018-06-05T14:03:55.876Z,30.20
2018-06-05T14:06:24.576Z,28.63
2018-06-05T14:08:53.397Z,25.53
2018-06-05T14:11:22.006Z,29.43
2018-06-05T14:13:50.589Z,31.77
2018-06-05T14:16:19.227Z,26.00
2018-06-05T14:18:47.809Z,31.33
2018-06-05T14:21:16.577Z,26.83
2018-06-05T14:23:45.308Z,27.47
2018-06-05T14:26:14.123Z,26.10
2018-06-05T14:28:42.734Z,26.47
2018-06-05T14:31:19.309Z,27.00
2018-06-05T14:33:48.039Z,24.73
2018-06-05T14:36:16.731Z,23.70
2018-06-05T14:38:45.381Z,27.73
2018-06-05T14:41:13.964Z,24.27
2018-06-05T14:43:42.532Z,24.07
2018-06-05T14:46:11.224Z,28.60
2018-06-05T14:48:39.895Z,26.40
2018-06-05T14:51:10.637Z,28.97
2018-06-05T14:53:39.358Z,28.13
2018-06-05T14:56:07.967Z,26.97
2018-06-05T14:58:36.578Z,24.67
2018-06-05T15:01:05.193Z,25.37
2018-06-05T15:03:33.893Z,28.50
2018-06-05T15:06:02.673Z,26.27
2018-06-05T15:12:06.376Z,26.97
2018-06-05T15:14:35.066Z,25.57
2018-06-05T15:17:03.758Z,30.57
2018-06-05T15:19:32.333Z,28.83
2018-06-05T15:22:01.158Z,26.43
2018-06-05T15:24:29.913Z,29.73
2018-06-05T15:26:58.729Z,25.37
2018-06-05T15:29:27.370Z,28.37
2018-06-05T15:31:56.077Z,25.60
2018-06-05T15:34:24.756Z,31.03
2018-06-05T15:36:53.382Z,29.03
2018-06-05T15:39:22.084Z,26.83
2018-06-05T15:41:50.741Z,27.07
2018-06-05T15:44:19.453Z,28.27
2018-06-05T15:46:48.091Z,27.70
2018-06-05T15:49:16.808Z,30.53
2018-06-05T15:51:45.470Z,27.47
2018-06-05T15:54:14.134Z,27.10
2018-06-05T15:56:42.758Z,28.00
2018-06-05T15:59:11.394Z,33.83
2018-06-05T16:01:39.983Z,28.60
2018-06-05T16:04:08.619Z,29.83
2018-06-05T16:06:37.357Z,27.27
2018-06-05T16:09:09.617Z,29.00
2018-06-05T16:11:38.341Z,28.17
2018-06-05T16:14:06.960Z,29.00
2018-06-05T16:16:35.596Z,31.03
2018-06-05T16:19:04.286Z,30.87
2018-06-05T16:21:59.555Z,28.13
2018-06-05T16:24:28.772Z,28.90
2018-06-05T16:26:57.617Z,28.43
2018-06-05T16:29:26.266Z,28.97
2018-06-05T16:31:55.002Z,27.07
2018-06-05T16:34:24.375Z,26.13
2018-06-05T16:36:53.032Z,27.77
2018-06-05T16:39:22.261Z,29.90
2018-06-05T16:41:50.916Z,28.73
2018-06-05T16:44:19.642Z,26.93
2018-06-05T16:46:48.246Z,27.90
2018-06-05T16:49:16.897Z,31.07
2018-06-05T16:51:45.660Z,28.20
2018-06-05T16:54:14.363Z,28.67
2018-06-05T16:56:43.081Z,25.27
2018-06-05T16:59:12.337Z,24.30
2018-06-05T17:01:41.126Z,25.50
2018-06-05T17:04:09.698Z,25.27
2018-06-05T17:06:38.415Z,31.03
2018-06-05T17:09:07.857Z,25.10
2018-06-05T17:11:36.606Z,27.87
2018-06-05T17:14:05.281Z,25.93
2018-06-05T17:16:34.065Z,25.77
2018-06-05T17:19:02.767Z,29.47
2018-06-05T17:21:31.429Z,26.97
2018-06-05T17:24:00.115Z,24.80
2018-06-05T17:26:28.825Z,22.90
2018-06-05T17:28:57.426Z,25.30
2018-06-05T17:31:26.073Z,24.40
2018-06-05T17:33:55.738Z,27.37
2018-06-05T17:36:24.360Z,25.20
2018-06-05T17:38:53.067Z,24.37
2018-06-05T17:41:21.661Z,24.17
2018-06-05T17:43:50.316Z,23.77
2018-06-05T17:46:19.040Z,23.10
2018-06-05T17:48:47.716Z,22.33
2018-06-05T17:51:16.432Z,20.47
2018-06-05T17:53:45.633Z,20.30
2018-06-05T17:56:14.434Z,21.33
2018-06-05T17:58:43.163Z,20.93
2018-06-05T18:01:11.783Z,19.83
2018-06-05T18:03:40.453Z,20.27
2018-06-05T18:06:09.153Z,21.20
2018-06-05T18:08:37.805Z,20.17
2018-06-05T18:11:06.502Z,20.63
2018-06-05T18:13:34.004Z,21.73
2018-06-05T18:16:02.662Z,18.97
2018-06-05T18:18:31.437Z,21.07
2018-06-05T18:21:00.115Z,21.63
2018-06-05T18:23:28.801Z,22.93
2018-06-05T18:25:57.462Z,22.57
2018-06-05T18:29:01.209Z,21.07
2018-06-05T18:31:29.894Z,22.93
2018-06-05T18:33:58.673Z,19.47
2018-06-05T18:36:27.349Z,24.33
2018-06-05T18:39:09.036Z,20.77
2018-06-05T18:41:37.763Z,19.73
2018-06-05T18:44:06.418Z,20.93
2018-06-05T18:46:35.276Z,20.77
2018-06-05T18:49:07.176Z,20.60
2018-06-05T18:51:35.860Z,21.87
2018-06-05T18:54:04.673Z,24.00
2018-06-05T18:56:33.374Z,22.80
2018-06-05T18:59:02.044Z,23.97
2018-06-05T19:01:30.837Z,29.13
2018-06-05T19:03:59.539Z,21.03
2018-06-05T19:06:28.187Z,23.33
2018-06-05T19:08:56.797Z,23.57
2018-06-05T19:11:25.524Z,21.33
2018-06-05T19:13:54.244Z,22.27
2018-06-05T19:16:22.961Z,23.70
2018-06-05T19:18:51.725Z,22.23
2018-06-05T19:21:20.345Z,25.87
2018-06-05T19:23:50.128Z,22.10
2018-06-05T19:26:19.009Z,21.43
2018-06-05T19:28:47.785Z,21.57
2018-06-05T19:31:16.375Z,21.07
2018-06-05T19:33:45.010Z,23.57
2018-06-05T19:36:13.866Z,22.83
2018-06-05T19:38:42.552Z,24.17
2018-06-05T19:41:11.338Z,22.27
2018-06-05T19:43:40.015Z,24.13
2018-06-05T19:46:08.705Z,22.97
2018-06-05T19:48:37.380Z,24.37
2018-06-05T19:51:06.089Z,26.00
2018-06-05T19:53:34.729Z,25.23
2018-06-05T19:56:06.821Z,23.40
2018-06-05T19:58:35.502Z,23.27
2018-06-05T20:01:04.714Z,26.60
2018-06-05T20:03:40.477Z,25.00
2018-06-05T20:06:09.161Z,26.23
2018-06-05T20:08:37.870Z,28.47
2018-06-05T20:11:06.646Z,29.40
2018-06-05T20:13:35.252Z,24.07
2018-06-05T20:16:03.868Z,20.67
2018-06-05T20:18:32.604Z,21.97
2018-06-05T20:21:01.286Z,19.43
2018-06-05T20:23:30.083Z,26.33
2018-06-05T20:25:59.609Z,29.30
2018-06-05T20:28:28.245Z,28.30
2018-06-05T20:30:57.043Z,21.80
2018-06-05T20:33:25.826Z,26.37
2018-06-05T20:35:54.458Z,25.87
2018-06-05T20:38:23.082Z,24.83
2018-06-05T20:40:51.879Z,26.83
2018-06-05T20:43:20.477Z,27.50
2018-06-05T20:45:49.134Z,29.60
2018-06-05T20:48:17.842Z,29.03
2018-06-05T20:50:46.551Z,24.67
2018-06-05T20:53:15.946Z,22.53
2018-06-05T20:55:44.568Z,20.87
2018-06-05T20:58:13.206Z,26.40
2018-06-05T21:00:42.270Z,23.53
2018-06-05T21:03:11.694Z,22.73
2018-06-05T21:05:40.316Z,22.83
2018-06-05T21:08:09.628Z,27.07
2018-06-05T21:10:38.491Z,25.53
2018-06-05T21:13:07.138Z,31.93
2018-06-05T21:15:35.835Z,29.17
2018-06-05T21:18:04.554Z,32.27
2018-06-05T21:20:33.222Z,43.70
2018-06-05T21:23:02.673Z,37.50
2018-06-05T21:25:31.425Z,36.77
2018-06-05T21:28:00.098Z,36.37
2018-06-05T21:30:28.779Z,37.80
2018-06-05T21:32:57.368Z,37.53
2018-06-05T21:35:26.026Z,45.70
2018-06-05T21:37:54.749Z,47.47
2018-06-05T21:40:23.546Z,47.53
2018-06-05T21:42:52.318Z,34.57
2018-06-05T21:45:21.011Z,32.90
2018-06-05T21:47:49.708Z,23.83
2018-06-05T21:50:18.362Z,22.43
2018-06-05T21:52:55.709Z,21.13
2018-06-05T21:55:24.457Z,30.57
2018-06-05T21:57:53.867Z,22.03
2018-06-05T22:00:24.616Z,37.03
2018-06-05T22:02:53.283Z,37.43
2018-06-05T22:05:21.878Z,35.70
2018-06-05T22:07:50.655Z,46.10
2018-06-05T22:10:19.277Z,32.90
2018-06-05T22:12:47.942Z,27.53
2018-06-05T22:15:16.590Z,39.87
2018-06-05T22:17:45.415Z,28.73
2018-06-05T22:20:14.207Z,27.93
2018-06-05T22:22:42.891Z,47.30
2018-06-05T22:25:11.681Z,47.47
2018-06-05T22:27:40.286Z,49.30
2018-06-05T22:30:10.502Z,46.67
2018-06-05T22:32:39.268Z,36.33
2018-06-05T22:35:08.050Z,36.40
2018-06-05T22:37:36.712Z,38.10
2018-06-05T22:40:05.444Z,29.27
2018-06-05T22:42:34.044Z,23.80
2018-06-05T22:45:33.728Z,36.17
2018-06-05T22:48:02.622Z,33.77
2018-06-05T22:50:32.054Z,29.00
2018-06-05T22:53:00.717Z,20.80
2018-06-05T22:55:29.397Z,21.67
2018-06-05T22:57:58.027Z,24.30
2018-06-05T23:00:32.609Z,38.50
2018-06-05T23:03:01.197Z,49.07
2018-06-05T23:05:30.597Z,49.93
2018-06-05T23:07:59.291Z,47.80
2018-06-05T23:10:27.930Z,46.90
2018-06-05T23:12:56.504Z,52.67
2018-06-05T23:15:25.836Z,50.47
2018-06-05T23:17:55.166Z,41.37
2018-06-05T23:20:46.079Z,33.83
2018-06-05T23:23:14.725Z,25.93
2018-06-05T23:25:43.357Z,69.17
2018-06-05T23:28:12.028Z,53.80
2018-06-05T23:30:40.623Z,46.20
2018-06-05T23:33:10.070Z,52.33
2018-06-05T23:35:39.332Z,45.43
2018-06-05T23:38:07.946Z,54.70
2018-06-05T23:40:37.200Z,57.80
2018-06-05T23:43:05.873Z,56.30
2018-06-05T23:45:34.567Z,46.53
2018-06-05T23:48:03.241Z,39.43
2018-06-05T23:50:31.797Z,44.93
2018-06-05T23:53:00.376Z,45.40
2018-06-05T23:55:28.972Z,51.47
2018-06-05T23:57:57.716Z,38.73
